Time;durP1;ratioP1;P1;durP2;ratioP2;P2;SDS_P1;SDS_P2;PMS_P1;PMS_P2;Temp;Humidity;BMP_temperature;BMP_pressure;BME280_temperature;BME280_humidity;BME280_pressure;Samples;Min_cycle;Max_cycle;Signal;HPM_P1;HPM_P2
2022/08/18 00:04:52;;;;;;;7.90;6.50;;;;;;;24.14;46.55;101218.88;16136247;19;129453;-59
2022/08/18 00:10:17;;;;;;;10.02;7.63;;;;;;;24.14;46.59;101226.44;16137903;19;130484;-59
2022/08/18 00:15:39;;;;;;;10.10;6.82;;;;;;;24.15;46.20;101239.28;16132629;19;129918;-59
2022/08/18 00:21:10;;;;;;;9.57;6.35;;;;;;;24.14;46.61;101238.44;16136820;19;130233;-59
2022/08/18 00:26:32;;;;;;;6.68;5.70;;;;;;;24.14;46.51;101232.84;16138184;19;129256;-59
2022/08/18 00:31:57;;;;;;;8.02;6.80;;;;;;;24.14;46.30;101221.66;16137665;19;128920;-59
2022/08/18 00:37:20;;;;;;;9.18;7.40;;;;;;;24.12;46.52;101224.75;16137735;19;129885;-59
2022/08/18 00:42:46;;;;;;;9.05;7.45;;;;;;;24.12;46.43;101223.91;16139147;19;129356;-59
2022/08/18 00:48:10;;;;;;;8.57;6.95;;;;;;;24.11;46.59;101225.03;16136358;19;130574;-60
2022/08/18 00:53:44;;;;;;;6.13;5.63;;;;;;;24.12;46.62;101232.31;16135166;19;130139;-59
2022/08/18 00:59:28;;;;;;;6.95;6.25;;;;;;;24.11;46.60;101222.25;16133713;19;130448;-59
2022/08/18 01:05:21;;;;;;;7.38;5.68;;;;;;;24.11;46.47;101234.25;16135663;19;129171;-59
2022/08/18 01:10:44;;;;;;;7.13;5.53;;;;;;;24.11;46.70;101250.19;16134736;19;130217;-59
2022/08/18 01:21:52;;;;;;;5.35;4.85;;;;;;;24.10;46.63;101245.72;16135271;19;129261;-59
2022/08/18 01:27:17;;;;;;;6.72;4.97;;;;;;;24.10;46.67;101237.31;16132777;19;129169;-59
2022/08/18 01:32:41;;;;;;;5.88;5.25;;;;;;;24.09;46.75;101244.03;16133003;19;129751;-59
2022/08/18 01:38:03;;;;;;;6.13;5.45;;;;;;;24.09;46.69;101242.06;16133057;19;130059;-59
2022/08/18 01:43:25;;;;;;;6.57;5.60;;;;;;;24.08;46.35;101234.78;16133605;19;129104;-59
2022/08/18 01:48:47;;;;;;;7.28;5.63;;;;;;;24.08;46.56;101242.34;16132100;19;128832;-59
2022/08/18 01:54:12;;;;;;;5.93;5.20;;;;;;;24.07;46.78;101249.88;16128002;19;129357;-59
2022/08/18 01:59:34;;;;;;;6.43;5.63;;;;;;;24.07;46.58;101258.25;16130933;19;129484;-59
2022/08/18 02:05:01;;;;;;;5.63;5.13;;;;;;;24.07;46.81;101255.47;16130503;19;129652;-59
2022/08/18 02:10:23;;;;;;;5.43;4.72;;;;;;;24.07;46.63;101260.22;16133653;19;128993;-59
2022/08/18 02:15:45;;;;;;;5.90;4.82;;;;;;;24.07;46.72;101261.06;16128990;19;129913;-59
2022/08/18 02:21:13;;;;;;;7.43;4.70;;;;;;;24.08;46.65;101270.31;16129839;19;129373;-59
2022/08/18 02:26:39;;;;;;;5.40;4.65;;;;;;;24.06;46.77;101269.72;16145166;19;130011;-59
2022/08/18 02:32:02;;;;;;;6.55;4.85;;;;;;;24.06;46.42;101258.53;16146974;19;129858;-59
2022/08/18 02:37:24;;;;;;;6.70;5.00;;;;;;;24.06;46.58;101252.97;16143611;19;130959;-59
2022/08/18 02:42:46;;;;;;;6.20;5.22;;;;;;;24.05;46.99;101254.94;16145471;19;129873;-59
2022/08/18 02:48:07;;;;;;;5.10;4.63;;;;;;;24.05;46.45;101259.66;16142961;19;129199;-59
2022/08/18 02:53:30;;;;;;;6.47;4.95;;;;;;;24.05;46.77;101265.25;16142323;19;130728;-59
2022/08/18 02:59:01;;;;;;;4.65;4.15;;;;;;;24.04;46.80;101258.84;16140039;19;129736;-59
2022/08/18 03:04:27;;;;;;;5.15;4.07;;;;;;;24.04;46.47;101260.78;16143822;19;129620;-59
2022/08/18 03:09:50;;;;;;;4.32;3.92;;;;;;;24.03;46.66;101265.53;16142998;19;129823;-59
2022/08/18 03:15:12;;;;;;;4.95;4.53;;;;;;;24.02;46.68;101252.69;16138690;19;129476;-59
2022/08/18 03:20:34;;;;;;;5.30;4.78;;;;;;;24.02;47.02;101251.81;16144330;19;129634;-59
2022/08/18 03:25:56;;;;;;;5.07;4.57;;;;;;;24.01;46.82;101259.38;16143225;19;129280;-59
2022/08/18 03:31:20;;;;;;;5.05;4.55;;;;;;;24.02;46.67;101251.81;16145856;19;130269;-59
2022/08/18 03:36:44;;;;;;;4.93;4.30;;;;;;;24.00;46.81;101260.50;16136592;19;130866;-59
2022/08/18 03:42:06;;;;;;;5.45;4.95;;;;;;;24.00;46.46;101259.66;16140622;19;129836;-59
2022/08/18 03:47:28;;;;;;;5.25;4.72;;;;;;;24.00;46.47;101254.06;16142838;19;131129;-59
2022/08/18 03:52:51;;;;;;;5.00;4.50;;;;;;;23.99;46.62;101252.41;16140745;19;130982;-59
2022/08/18 03:58:13;;;;;;;4.80;4.20;;;;;;;23.99;46.68;101252.41;16142348;19;129915;-59
2022/08/18 04:03:35;;;;;;;5.82;4.53;;;;;;;23.99;46.71;101252.41;16141527;19;129915;-59
2022/08/18 04:09:00;;;;;;;4.47;4.07;;;;;;;23.97;46.92;101253.50;16137868;19;129182;-59
2022/08/18 04:14:24;;;;;;;4.55;4.15;;;;;;;23.96;46.45;101254.63;16137702;19;131817;-58
2022/08/18 04:19:46;;;;;;;4.57;4.03;;;;;;;23.97;46.63;101261.03;16140707;19;129311;-59
2022/08/18 04:25:08;;;;;;;5.07;4.57;;;;;;;23.96;46.36;101265.78;16141431;19;129369;-58
2022/08/18 04:30:30;;;;;;;4.78;4.38;;;;;;;23.96;46.55;101274.19;16140073;19;129885;-59
2022/08/18 04:35:53;;;;;;;6.07;4.50;;;;;;;23.97;46.81;101280.59;16136327;19;129521;-59
2022/08/18 04:41:14;;;;;;;4.10;3.70;;;;;;;23.96;46.63;101281.72;16141368;19;129346;-59
2022/08/18 04:46:43;;;;;;;4.40;4.00;;;;;;;23.95;46.59;101280.88;16136759;19;130089;-59
2022/08/18 04:58:01;;;;;;;4.60;4.20;;;;;;;23.93;46.67;101285.91;16136940;19;129015;-59
2022/08/18 05:03:25;;;;;;;5.45;4.65;;;;;;;23.94;46.58;101283.94;16135851;19;131593;-59
2022/08/18 05:08:53;;;;;;;5.43;4.47;;;;;;;23.94;46.52;101286.72;16133466;19;129435;-59
2022/08/18 05:14:15;;;;;;;4.32;3.92;;;;;;;23.94;46.56;101283.94;16135451;19;129512;-59
2022/08/18 05:19:36;;;;;;;4.55;3.90;;;;;;;23.94;46.52;101289.50;16135462;19;129903;-59
2022/08/18 05:25:06;;;;;;;4.50;4.07;;;;;;;23.93;46.58;101282.28;16136765;19;129309;-59
2022/08/18 05:30:27;;;;;;;4.57;3.88;;;;;;;23.92;46.42;101292.59;16133137;19;129745;-59
2022/08/18 05:36:02;;;;;;;4.05;3.65;;;;;;;23.93;46.92;101296.25;16129273;19;130875;-58
2022/08/18 05:41:32;;;;;;;14.90;13.43;;;;;;;23.88;46.21;101297.03;16128640;19;129717;-58
2022/08/18 05:47:12;;;;;;;17.58;15.88;;;;;;;23.82;46.23;101298.97;16133418;19;130445;-58
2022/08/18 05:52:36;;;;;;;19.15;17.27;;;;;;;23.77;45.61;101298.13;16134649;19;130214;-58
2022/08/18 05:58:09;;;;;;;19.20;17.27;;;;;;;23.73;45.61;101302.59;16133414;19;129920;-53
2022/08/18 06:03:36;;;;;;;18.77;16.92;;;;;;;23.70;45.95;101295.56;16145509;19;129641;-59
2022/08/18 06:09:13;;;;;;;18.08;16.48;;;;;;;23.70;45.58;101300.34;16143560;19;128996;-51
2022/08/18 06:14:38;;;;;;;17.98;16.30;;;;;;;23.65;45.68;101304.78;16147127;19;129376;-57
2022/08/18 06:20:32;;;;;;;18.00;16.25;;;;;;;23.68;45.79;101308.13;16146032;19;129808;-59
2022/08/18 06:25:56;;;;;;;18.00;16.15;;;;;;;23.72;45.71;101309.28;16146990;19;129625;-59
2022/08/18 06:31:46;;;;;;;17.50;15.68;;;;;;;23.73;45.41;101327.72;16149825;19;129450;-61
2022/08/18 06:37:18;;;;;;;19.20;17.15;;;;;;;23.73;45.91;101331.34;16139621;19;129486;-60
2022/08/18 06:42:41;;;;;;;20.30;17.88;;;;;;;23.75;45.86;101325.50;16145593;19;130055;-60
2022/08/18 06:48:16;;;;;;;23.60;17.85;;;;;;;23.78;46.04;101328.59;16144842;19;128908;-60
2022/08/18 06:54:00;;;;;;;26.48;19.80;;;;;;;23.79;46.26;101332.22;16142864;19;130248;-60
2022/08/18 06:59:28;;;;;;;27.70;21.85;;;;;;;23.73;46.18;101341.69;16145355;19;129213;-60
2022/08/18 07:05:01;;;;;;;24.08;20.20;;;;;;;23.74;46.40;101329.41;16142882;19;129299;-60
2022/08/18 07:10:39;;;;;;;20.90;18.52;;;;;;;23.73;46.43;101322.97;16139378;19;130464;-60
2022/08/18 07:16:15;;;;;;;21.10;18.83;;;;;;;23.77;46.29;101317.66;16138930;19;129552;-60
2022/08/18 07:22:03;;;;;;;25.00;18.60;;;;;;;23.82;46.38;101326.91;16139847;19;130071;-61
2022/08/18 07:27:37;;;;;;;19.00;15.82;;;;;;;23.83;46.28;101324.97;16141868;19;129502;-60
2022/08/18 07:33:12;;;;;;;17.15;14.02;;;;;;;23.89;46.52;101326.66;16143952;19;129232;-60
2022/08/18 07:38:45;;;;;;;19.13;13.00;;;;;;;23.96;45.99;101335.66;16138692;19;130630;-61
2022/08/18 07:44:35;;;;;;;17.17;11.80;;;;;;;24.03;46.07;101326.16;16143346;19;130580;-59
2022/08/18 07:49:57;;;;;;;20.00;12.50;;;;;;;24.09;46.64;101331.50;16141580;19;129308;-59
2022/08/18 07:55:47;;;;;;;14.15;10.70;;;;;;;24.16;46.13;101322.84;16136204;19;129152;-60
2022/08/18 08:01:13;;;;;;;14.30;9.57;;;;;;;24.23;46.21;101329.06;16135231;19;130744;-59
2022/08/18 08:06:42;;;;;;;14.18;9.90;;;;;;;24.23;46.37;101340.22;16134931;19;130527;-60
2022/08/18 08:12:24;;;;;;;16.58;9.25;;;;;;;24.30;46.01;101340.00;16133100;19;130998;-60
2022/08/18 08:18:03;;;;;;;18.13;9.40;;;;;;;24.36;46.32;101341.69;16134323;19;129238;-59
2022/08/18 08:23:26;;;;;;;12.35;8.40;;;;;;;24.41;46.14;101333.31;16133355;19;130029;-59
2022/08/18 08:29:09;;;;;;;15.45;8.60;;;;;;;24.50;45.73;101336.38;16140048;19;129615;-59
2022/08/18 08:34:50;;;;;;;14.25;8.82;;;;;;;24.57;46.08;101347.31;16131014;19;129093;-59
2022/08/18 08:40:17;;;;;;;11.20;8.25;;;;;;;24.63;45.88;101354.59;16132918;19;130545;-60
2022/08/18 08:46:02;;;;;;;20.80;7.90;;;;;;;24.67;45.97;101350.16;16131852;19;129366;-51
2022/08/18 08:51:34;;;;;;;19.65;7.70;;;;;;;24.61;46.49;101348.44;16132397;19;131270;-57
2022/08/18 08:57:00;;;;;;;18.25;8.00;;;;;;;24.60;46.72;101340.34;15979510;19;2962856;-59
2022/08/18 09:02:25;;;;;;;21.85;7.93;;;;;;;24.58;47.27;101338.66;16134204;19;130371;-52
2022/08/18 09:08:47;;;;;;;25.23;8.95;;;;;;;24.62;47.48;101347.31;16136279;19;130011;-50
2022/08/18 09:14:22;;;;;;;26.20;9.02;;;;;;;24.63;47.74;101351.81;16133996;19;131163;-52
2022/08/18 09:20:03;;;;;;;43.50;9.82;;;;;;;24.62;47.99;101340.88;16132263;19;130405;-47
2022/08/18 09:25:36;;;;;;;30.00;8.98;;;;;;;24.62;48.07;101343.69;16133324;19;132174;-53
2022/08/18 09:31:01;;;;;;;30.35;8.70;;;;;;;24.60;47.81;101329.16;16132077;19;130240;-53
2022/08/18 09:36:37;;;;;;;;;;;;;;;24.57;47.55;101319.34;16134221;19;131404;-52
2022/08/18 09:42:08;;;;;;;24.45;8.43;;;;;;;24.60;47.38;101317.97;16139261;19;129685;-52
2022/08/18 09:47:30;;;;;;;28.38;8.35;;;;;;;24.56;47.42;101338.09;16135597;19;130047;-53
2022/08/18 09:52:52;;;;;;;17.50;8.15;;;;;;;24.53;47.46;101335.84;16132381;19;132762;-55
2022/08/18 09:58:40;;;;;;;16.27;7.97;;;;;;;24.53;47.41;101335.00;16129171;19;130097;-49
2022/08/18 10:04:14;;;;;;;17.13;7.82;;;;;;;24.50;47.48;101329.97;16128333;19;129305;-50
2022/08/18 10:09:47;;;;;;;17.63;7.32;;;;;;;24.49;47.58;101331.94;16132546;19;130456;-52
2022/08/18 10:15:28;;;;;;;15.35;6.75;;;;;;;24.47;47.67;101325.78;16127865;19;129746;-56
2022/08/18 10:21:19;;;;;;;10.27;6.70;;;;;;;24.49;47.50;101317.97;16130950;19;129619;-51
2022/08/18 10:26:44;;;;;;;9.52;6.07;;;;;;;24.51;47.80;101309.28;16131847;19;129654;-48
2022/08/18 10:32:56;;;;;;;13.65;6.43;;;;;;;24.53;47.77;101313.47;16127649;19;130145;-52
2022/08/18 10:38:37;;;;;;;11.13;6.85;;;;;;;24.60;47.44;101303.97;16126680;19;129771;-50
2022/08/18 10:44:01;;;;;;;12.57;6.53;;;;;;;24.62;47.47;101304.50;16133854;19;129743;-51
2022/08/18 10:49:49;;;;;;;12.02;6.30;;;;;;;24.62;47.24;101310.09;16146825;19;129862;-54
2022/08/18 10:55:21;;;;;;;17.70;6.22;;;;;;;24.60;47.11;101306.78;16137752;19;130259;-53
2022/08/18 11:00:47;;;;;;;13.18;6.22;;;;;;;24.56;47.02;101300.88;16143142;19;130085;-52
2022/08/18 11:06:15;;;;;;;13.60;5.57;;;;;;;24.52;46.90;101292.22;16146512;19;129307;-50
2022/08/18 11:11:43;;;;;;;14.73;5.72;;;;;;;24.52;46.98;101289.41;16142091;19;129886;-49
2022/08/18 11:17:46;;;;;;;8.80;5.55;;;;;;;24.51;46.98;101282.13;16133722;19;129834;-53
2022/08/18 11:23:16;;;;;;;9.80;6.40;;;;;;;24.55;46.73;101283.25;16140143;19;129195;-56
2022/08/18 11:28:37;;;;;;;8.23;5.75;;;;;;;24.56;46.89;101279.34;16143360;19;129341;-62
2022/08/18 11:34:14;;;;;;;8.52;6.07;;;;;;;24.58;46.67;101282.72;16143806;19;130039;-61
2022/08/18 11:39:58;;;;;;;8.82;6.22;;;;;;;24.60;46.53;101267.63;16143750;19;130387;-61
2022/08/18 11:45:25;;;;;;;7.95;5.78;;;;;;;24.63;46.42;101261.44;16141949;19;130206;-62
2022/08/18 11:51:00;;;;;;;10.55;6.43;;;;;;;24.63;46.25;101251.09;16140761;19;131236;-61
2022/08/18 11:56:25;;;;;;;12.33;6.53;;;;;;;24.64;45.96;101263.13;16129100;19;130728;-62
2022/08/18 12:01:55;;;;;;;10.98;6.20;;;;;;;24.65;46.28;101253.59;16138241;19;129346;-62
2022/08/18 12:07:31;;;;;;;10.93;6.45;;;;;;;24.69;46.05;101265.94;16140411;19;130247;-63
2022/08/18 12:12:53;;;;;;;;;;;;;;;24.67;45.90;101251.38;16138435;19;131503;-62
2022/08/18 12:18:18;;;;;;;7.95;5.70;;;;;;;24.69;45.59;101254.75;16135343;19;129418;-63
2022/08/18 12:23:50;;;;;;;11.13;6.07;;;;;;;24.67;45.68;101269.03;16136668;19;129813;-62
2022/08/18 12:29:13;;;;;;;10.55;6.07;;;;;;;24.67;45.52;101262.56;16136387;19;129218;-63
2022/08/18 12:34:37;;;;;;;12.00;5.97;;;;;;;24.66;45.49;101266.47;16140401;19;128772;-62
2022/08/18 12:40:03;;;;;;;10.38;6.38;;;;;;;24.67;45.27;101273.75;16138610;19;129368;-63
2022/08/18 12:45:27;;;;;;;13.32;5.57;;;;;;;24.66;45.44;101272.06;16142014;19;129835;-62
2022/08/18 12:50:49;;;;;;;9.15;5.30;;;;;;;24.67;45.43;101284.94;16140726;19;129230;-63
2022/08/18 12:56:22;;;;;;;6.22;5.25;;;;;;;24.67;45.53;101284.94;16134603;19;129310;-62
2022/08/18 13:01:45;;;;;;;6.93;5.07;;;;;;;24.69;45.37;101288.31;16141455;19;128970;-63
2022/08/18 13:07:09;;;;;;;9.02;5.10;;;;;;;24.69;45.55;101293.91;16140233;19;129268;-63
2022/08/18 13:12:31;;;;;;;8.02;5.47;;;;;;;24.69;45.51;101282.72;16135278;19;129632;-63
2022/08/18 13:17:54;;;;;;;7.70;5.70;;;;;;;24.70;45.67;101298.38;16136599;19;131233;-63
2022/08/18 13:23:17;;;;;;;5.82;5.28;;;;;;;24.68;45.60;101297.81;16139025;19;128788;-63
2022/08/18 13:28:45;;;;;;;6.20;4.78;;;;;;;24.69;45.79;101285.50;16138865;19;129309;-63
2022/08/18 13:34:18;;;;;;;5.75;5.10;;;;;;;24.69;45.60;101269.56;16137955;19;129947;-63
2022/08/18 13:39:41;;;;;;;6.60;4.75;;;;;;;24.69;45.64;101255.56;16131117;19;129137;-62
2022/08/18 13:45:04;;;;;;;5.82;5.18;;;;;;;24.69;45.78;101254.75;16137971;19;128962;-60
2022/08/18 13:50:46;;;;;;;9.00;5.45;;;;;;;24.67;45.79;101240.19;16137529;19;129613;-63
2022/08/18 13:56:13;;;;;;;5.85;4.78;;;;;;;24.65;45.78;101234.03;16131871;19;129808;-62
2022/08/18 14:01:36;;;;;;;5.15;4.65;;;;;;;24.65;45.82;101236.81;16135070;19;129559;-62
2022/08/18 14:07:12;;;;;;;7.22;5.13;;;;;;;24.65;45.69;101231.22;16135903;19;129140;-63
2022/08/18 14:12:40;;;;;;;8.93;5.28;;;;;;;24.66;45.96;101221.72;16130087;19;129102;-63
2022/08/18 14:18:02;;;;;;;5.30;4.80;;;;;;;24.65;45.91;101214.44;16137301;19;130324;-62
2022/08/18 14:29:15;;;;;;;5.57;5.07;;;;;;;24.66;45.66;101196.53;16149945;19;129034;-63
2022/08/18 14:34:37;;;;;;;8.25;4.97;;;;;;;24.66;45.84;101196.53;16149629;19;128887;-63
2022/08/18 14:40:10;;;;;;;5.22;4.50;;;;;;;24.67;45.71;101195.44;16144180;19;129441;-63
2022/08/18 14:45:33;;;;;;;6.57;4.78;;;;;;;24.66;45.71;101204.94;16148092;19;129756;-63
2022/08/18 14:50:58;;;;;;;5.57;5.00;;;;;;;24.65;45.85;101206.06;16151653;19;130006;-62
2022/08/18 14:56:24;;;;;;;5.05;4.65;;;;;;;24.63;45.76;101203.56;16144389;19;131112;-62
2022/08/18 15:01:49;;;;;;;5.00;4.50;;;;;;;24.62;45.73;101201.88;16147073;19;129064;-63
2022/08/18 15:07:11;;;;;;;6.22;4.82;;;;;;;24.62;45.70;101206.59;16146401;19;129011;-63
2022/08/18 15:12:34;;;;;;;5.68;4.90;;;;;;;24.62;45.57;101209.41;16144872;19;129482;-58
2022/08/18 15:17:56;;;;;;;4.72;4.32;;;;;;;24.65;45.71;101217.25;16142023;19;129805;-60
2022/08/18 15:28:58;;;;;;;5.30;4.80;;;;;;;24.63;45.80;101213.88;16145149;19;130423;-59
2022/08/18 15:34:21;;;;;;;10.23;4.75;;;;;;;24.62;45.76;101217.78;16144328;19;128833;-59
2022/08/18 15:39:48;;;;;;;7.78;4.97;;;;;;;24.63;45.80;101205.50;16137771;19;129033;-59
2022/08/18 15:45:24;;;;;;;9.93;4.97;;;;;;;24.65;45.53;101208.84;16141156;19;130876;-59
2022/08/18 15:50:48;;;;;;;8.90;4.93;;;;;;;24.66;45.67;101207.72;16142895;19;129870;-59
2022/08/18 15:56:22;;;;;;;6.33;5.23;;;;;;;24.68;45.59;101209.13;16139078;19;129847;-60
2022/08/18 16:01:47;;;;;;;6.37;5.57;;;;;;;24.68;45.93;101202.69;16140433;19;130103;-60
2022/08/18 16:07:10;;;;;;;6.78;6.07;;;;;;;24.69;46.55;101212.78;16143750;19;129885;-60
2022/08/18 16:12:32;;;;;;;15.38;6.85;;;;;;;24.69;46.17;101201.59;16137878;19;129429;-60
2022/08/18 16:17:54;;;;;;;10.48;7.47;;;;;;;24.68;46.57;101205.50;16144482;19;129155;-59
2022/08/18 16:23:16;;;;;;;20.75;13.32;;;;;;;24.67;46.61;101207.47;16139542;19;129189;-60
2022/08/18 16:28:38;;;;;;;49.05;24.58;;;;;;;24.69;47.02;101204.38;16142164;19;129323;-60
2022/08/18 16:33:59;;;;;;;41.55;21.83;;;;;;;24.70;46.98;101200.47;16140423;19;129877;-60
2022/08/18 16:39:22;;;;;;;42.97;23.25;;;;;;;24.69;46.96;101209.97;16133325;19;129673;-60
2022/08/18 16:44:45;;;;;;;47.42;22.65;;;;;;;24.70;46.74;101206.88;16136141;19;130380;-58
2022/08/18 16:50:13;;;;;;;39.50;21.48;;;;;;;24.71;46.86;101207.75;16132480;19;129921;-56
2022/08/18 16:55:35;;;;;;;41.53;20.50;;;;;;;24.71;47.22;101202.97;16133767;19;130395;-55
2022/08/18 17:06:39;;;;;;;34.78;16.17;;;;;;;24.77;47.08;101195.41;16139081;19;129181;-55
2022/08/18 17:12:08;;;;;;;29.23;15.27;;;;;;;24.81;46.87;101202.13;16134527;19;129258;-59
2022/08/18 17:17:30;;;;;;;27.58;13.68;;;;;;;24.83;46.58;101205.50;16134357;19;130374;-51
2022/08/18 17:22:52;;;;;;;30.75;12.43;;;;;;;24.87;46.74;101200.16;16134519;19;129313;-57
2022/08/18 17:28:19;;;;;;;23.15;11.30;;;;;;;24.92;46.11;101196.53;16136755;19;129564;-47
2022/08/18 17:33:46;;;;;;;22.27;10.45;;;;;;;24.92;46.02;101200.19;16137484;19;129531;-59
2022/08/18 17:39:14;;;;;;;19.67;10.07;;;;;;;24.93;46.21;101192.63;16131132;19;129793;-56
2022/08/18 17:44:40;;;;;;;24.50;9.75;;;;;;;24.94;46.22;101194.31;16136411;19;129456;-56
2022/08/18 17:56:11;;;;;;;16.77;8.93;;;;;;;24.92;45.95;101190.94;16144968;19;129611;-58
2022/08/18 18:01:34;;;;;;;16.35;7.45;;;;;;;24.88;46.00;101188.69;16151909;19;129934;-59
2022/08/18 18:06:56;;;;;;;20.08;8.10;;;;;;;24.87;46.02;101195.38;16149873;19;129355;-58
2022/08/18 18:12:22;;;;;;;16.73;7.70;;;;;;;24.86;45.89;101188.09;16147911;19;129382;-57
2022/08/18 18:17:44;;;;;;;16.27;6.72;;;;;;;24.83;46.17;101199.91;16148572;19;129643;-59
2022/08/18 18:23:20;;;;;;;16.80;6.72;;;;;;;24.83;45.74;101199.91;16150480;19;129766;-60
2022/08/18 18:28:42;;;;;;;15.95;6.45;;;;;;;24.81;45.80;101190.94;16148746;19;129290;-60
2022/08/18 18:34:15;;;;;;;25.88;7.25;;;;;;;24.80;45.99;101194.03;16146622;19;130577;-57
2022/08/18 18:39:53;;;;;;;20.65;6.25;;;;;;;24.78;45.93;101194.28;16141998;19;130899;-57
2022/08/18 18:45:27;;;;;;;25.45;6.63;;;;;;;24.77;45.56;101198.22;16147756;19;129833;-58
2022/08/18 18:51:31;;;;;;;23.67;5.80;;;;;;;24.75;45.64;101194.03;16147827;19;129755;-57
2022/08/18 18:56:56;;;;;;;21.90;6.17;;;;;;;24.72;45.69;101201.03;16137400;19;130563;-58
2022/08/18 19:02:39;;;;;;;19.40;5.25;;;;;;;24.70;45.71;101212.47;16145354;19;129151;-62
2022/08/18 19:08:04;;;;;;;11.05;4.43;;;;;;;24.67;45.89;101210.28;16147764;19;130670;-64
2022/08/18 19:13:30;;;;;;;16.63;5.28;;;;;;;24.67;45.68;101220.59;16144370;19;130077;-59
2022/08/18 19:19:01;;;;;;;32.95;5.72;;;;;;;24.67;45.59;101224.25;16144439;19;129945;-59
2022/08/18 19:24:51;;;;;;;20.70;5.43;;;;;;;24.67;45.60;101223.41;16145736;19;131123;-57
2022/08/18 19:30:15;;;;;;;31.20;4.95;;;;;;;24.66;45.83;101230.13;16142653;19;130302;-52
2022/08/18 19:35:55;;;;;;;15.75;4.72;;;;;;;24.67;46.02;101229.84;16143721;19;130300;-61
2022/08/18 19:41:44;;;;;;;12.43;4.38;;;;;;;24.69;46.00;101233.19;16138196;19;129366;-52
2022/08/18 19:47:15;;;;;;;13.50;4.43;;;;;;;24.69;45.95;101233.19;16140576;19;130333;-61
2022/08/18 19:52:58;;;;;;;6.80;3.42;;;;;;;24.72;45.83;101234.59;16141867;19;129350;-57
2022/08/18 19:58:38;;;;;;;10.00;4.32;;;;;;;24.72;45.79;101234.59;16142159;19;130596;-59
2022/08/18 20:04:50;;;;;;;13.25;4.72;;;;;;;24.77;45.86;101248.56;16145284;19;129585;-58
2022/08/18 20:10:37;;;;;;;16.05;4.40;;;;;;;24.77;45.58;101247.75;16142949;19;129752;-55
2022/08/18 20:15:58;;;;;;;11.23;4.30;;;;;;;24.75;45.99;101252.78;16139330;19;130638;-55
2022/08/18 20:21:29;;;;;;;11.75;3.70;;;;;;;24.68;45.67;101247.47;16134022;19;130771;-56
2022/08/18 20:26:51;;;;;;;8.52;3.47;;;;;;;24.61;45.50;101252.50;16135642;19;129409;-56
2022/08/18 20:32:28;;;;;;;12.00;3.88;;;;;;;24.60;45.38;101245.22;16139072;19;131790;-58
2022/08/18 20:37:50;;;;;;;13.20;3.47;;;;;;;24.57;45.26;101252.22;16138264;19;130274;-58
2022/08/18 20:43:26;;;;;;;9.43;3.22;;;;;;;24.58;45.54;101253.88;16138233;19;129201;-59
2022/08/18 20:49:04;;;;;;;11.98;3.28;;;;;;;24.57;45.47;101255.00;16141073;19;129686;-58
2022/08/18 20:55:04;;;;;;;8.68;3.17;;;;;;;24.57;45.46;101257.81;16136871;19;130936;-58
2022/08/18 21:00:34;;;;;;;8.40;3.08;;;;;;;24.54;45.56;101259.22;16132654;19;129441;-57
2022/08/18 21:05:58;;;;;;;13.55;3.22;;;;;;;24.53;45.49;101257.53;16140507;19;129636;-58
2022/08/18 21:11:26;;;;;;;8.20;3.20;;;;;;;24.52;45.28;101264.22;16134995;19;129389;-59
2022/08/18 21:16:53;;;;;;;5.45;3.03;;;;;;;24.51;45.67;101259.75;16137275;19;129311;-59
2022/08/18 21:22:18;;;;;;;8.05;2.95;;;;;;;24.50;46.02;101258.06;16138164;19;129795;-58
2022/08/18 21:27:43;;;;;;;4.53;2.65;;;;;;;24.50;45.92;101263.66;16136587;19;129362;-57
2022/08/18 21:33:19;;;;;;;6.20;2.78;;;;;;;24.49;45.64;101273.22;16137819;19;128998;-58
2022/08/18 21:38:48;;;;;;;3.95;2.55;;;;;;;24.47;45.65;101272.63;16132388;19;128937;-58
2022/08/18 21:44:26;;;;;;;5.53;2.70;;;;;;;24.45;45.61;101277.66;16133593;19;130508;-58
2022/08/18 21:50:00;;;;;;;4.70;2.80;;;;;;;24.47;45.63;101278.22;16137500;19;129575;-58
2022/08/18 21:55:53;;;;;;;6.47;2.63;;;;;;;24.43;45.61;101275.13;16132221;19;130813;-58
2022/08/18 22:01:22;;;;;;;3.58;2.40;;;;;;;24.43;45.70;101277.09;16127502;19;129619;-58
2022/08/18 22:06:50;;;;;;;4.18;2.55;;;;;;;24.42;45.51;101279.06;16136586;19;129550;-57
2022/08/18 22:18:06;;;;;;;3.65;2.47;;;;;;;24.41;45.68;101277.38;16129612;19;129522;-58
2022/08/18 22:24:25;;;;;;;4.95;2.42;;;;;;;24.40;45.61;101274.84;16135165;19;129374;-58
2022/08/18 22:29:43;;;;;;;6.07;2.58;;;;;;;24.39;45.59;101273.16;16135530;19;130057;-58
2022/08/18 22:35:07;;;;;;;4.50;2.35;;;;;;;24.37;45.62;101270.66;16133068;19;130700;-57
2022/08/18 22:40:28;;;;;;;3.65;2.38;;;;;;;24.36;45.97;101280.16;16133536;19;129837;-58
2022/08/18 22:45:50;;;;;;;3.78;2.72;;;;;;;24.36;45.58;101282.13;16145139;19;130139;-58
2022/08/18 22:51:21;;;;;;;3.17;2.28;;;;;;;24.36;45.73;101282.13;16144992;19;129305;-58
2022/08/18 22:56:45;;;;;;;4.22;2.72;;;;;;;24.36;45.94;101284.94;16140983;19;130185;-58
2022/08/18 23:02:18;;;;;;;4.43;2.50;;;;;;;24.35;45.57;101288.84;16138297;19;129688;-58
2022/08/18 23:07:42;;;;;;;3.63;2.50;;;;;;;24.33;45.66;101294.69;16143815;19;129822;-58
2022/08/18 23:13:04;;;;;;;3.60;2.40;;;;;;;24.34;45.61;101295.53;16139764;19;129813;-58
2022/08/18 23:18:26;;;;;;;2.38;2.17;;;;;;;24.32;45.59;101284.63;16140790;19;129740;-58
2022/08/18 23:23:48;;;;;;;3.85;2.30;;;;;;;24.32;45.66;101278.19;16145117;19;129671;-58
2022/08/18 23:29:11;;;;;;;3.58;2.38;;;;;;;24.32;45.72;101281.81;16141839;19;130142;-58
2022/08/18 23:34:34;;;;;;;4.78;2.60;;;;;;;24.31;45.58;101282.13;16145962;19;130351;-58
2022/08/18 23:39:56;;;;;;;3.65;2.03;;;;;;;24.29;45.56;101285.19;16141736;19;129162;-58
2022/08/18 23:45:18;;;;;;;5.35;2.17;;;;;;;24.29;45.53;101288.00;16144444;19;129270;-58
2022/08/18 23:50:45;;;;;;;4.00;2.10;;;;;;;24.30;45.53;101288.81;16142374;19;130393;-57
2022/08/18 23:56:07;;;;;;;4.38;2.40;;;;;;;24.29;45.47;101301.13;16139358;19;129328;-58
